Tiempo atmosférico en la estación meteorológica de Bailo, Huesca (722 m.)



Fecha
DESCASC
Temp. máxima en grados centígrados (hora)
DESCASC
Temp. mínima en grados centígrados (hora)
DESCASC
Temp. media en grados centígrados
DESCASC
Racha de viento máxima en m/sg (hora)
DESCASC
Velocidad máxima media en intervalos de 10 minutos(hora)
DESCASC
Precipitaciones diarias en mm
DESCASC
Precipitaciones de 00:00 a 06:00 en mm
DESCASC
Precipitaciones de 06:00 a 12:00 en mm
DESCASC
Precipitaciones de 12:00 a 18:00 en mm
DESCASC
Precipitaciones de 18:00 a 24:00 en mm
DESCASC
13-10-2019 24.7 (16:20) 15.5 (08:00) 20.1 15 (05:10) 10.83 (05:00) 0 0 0 0 0
12-10-2019 25.1 (16:20) 17.2 (06:00) 21.2 17.5 (06:10) 12.78 (06:10) 0 0 0 0 0
11-10-2019 25.7 (16:30) 10.5 (05:00) 18.1 13.06 (21:50) 9.44 (21:40) 0 0 0 0 0
10-10-2019 22.3 (16:50) 5.2 (00:00) 13.7 6.39 (16:10) 3.61 (16:10) 0 0 0 0 0
09-10-2019 21.2 (16:00) 9.8 (00:00) 15.5 10 (19:00) 6.67 (17:20) 0 0 0 0 0
08-10-2019 27.1 (16:00) 10.6 (00:00) 18.9 5 (17:40) 3.06 (01:40) 0 0 0 0 0
07-10-2019 24.1 (15:40) 11.6 (00:00) 17.9 16.11 (07:20) 10.83 (01:00) 0 0 0 0 0
06-10-2019 20.8 (15:50) 8.1 (00:00) 14.4 16.11 (23:50) 10.28 (14:50) 0 0 0 0 0
05-10-2019 26.1 (17:30) 8.6 (00:00) 17.4 7.5 (16:30) 4.72 (17:50) 0 0 0 0 0
04-10-2019 24.4 (15:20) 8.8 (00:00) 16.6 10 (14:00) 6.94 (12:20) 0 0 0 0 0
03-10-2019 24.6 (16:00) 6.7 (00:00) 15.7 11.67 (16:20) 8.33 (18:40) 0 0 0 0 0
02-10-2019 18.8 (15:20) 12.1 (00:00) 15.4 15.28 (14:50) 10.56 (14:20) 0 0 0 0 0
01-10-2019 26.2 (14:50) 12.7 (00:00) 19.5 12.5 (16:20) 8.33 (16:20) 0 0 0 0 0
30-09-2019 28.8 (16:40) 10.8 (00:00) 19.8 7.78 (17:50) 5 (18:10) 0 0 0 0 0
29-09-2019 28.7 (15:50) 11.7 (00:00) 20.2 10.56 (17:00) 7.78 (17:10) 0 0 0 0 0
28-09-2019 25.2 (16:10) 9.8 (00:00) 17.5 8.06 (17:40) 4.44 (16:20) 0 0 0 0 0
27-09-2019 26.5 (17:40) 11.5 (00:00) 19 9.17 (15:10) 6.67 (15:30) 0 0 0 0 0
26-09-2019 25.9 (17:10) 10.8 (00:00) 18.3 6.39 (14:50) 3.06 (16:30) 0 0 0 0 0
25-09-2019 20.6 (16:30) 11.7 (00:00) 16.2 12.22 (14:30) 8.61 (14:20) 0 0 0 0 0
24-09-2019 25.5 (16:00) 11 (00:00) 18.3 10.56 (16:50) 6.94 (16:20) 0.4 0 0 0 0.4
23-09-2019 21.7 (17:40) 7.8 (00:00) 14.8 4.72 (14:00) 2.78 (14:00) 0 0 0 0 0
22-09-2019 21.2 (16:30) 13.2 (00:00) 17.2 8.89 (17:30) 6.39 (17:10) 2.6 0 2 0.6 0
21-09-2019 23.1 (16:10) 14.7 (00:00) 18.9 10.83 (09:00) 7.22 (05:30) 14.4 12 2.4 0 0
20-09-2019 26.3 (16:20) 16.3 (00:00) 21.3 14.17 (21:10) 9.72 (21:10) 1 0 0 0 1
19-09-2019 26.3 (13:10) 12.5 (00:00) 19.4 8.61 (14:30) 7.22 (14:40) 0 0 0 0 0
18-09-2019 26.6 (13:50) 15.6 (00:00) 21.1 8.33 (15:30) 5.56 (15:30) 0.4 0 0 0.2 0.2
17-09-2019 29.5 (16:30) 14.4 (00:00) 21.9 8.61 (16:10) 6.39 (16:10) 0 0 0 0 0
16-09-2019 28.1 (16:00) 14.4 (00:00) 21.3 9.17 (17:20) 6.11 (01:20) 0 0 0 0 0

Gráficas

Temp. máximas Temp. mínimas Temp. medias Precipitaciones Rachas de viento máximas Velocidades máximas media en intervalos de 10 minutos

Datos horarios

Fecha y hora oficial Temperatura (ºC) Velocidad del viento (km/h) Dirección del viento Racha (km/h) Dirección de racha Precipitación (mm) Presión (hPa) Tendencia (hPa) Humedad (%)
2019-10-15 23:00:00 9.1 0 Calma 6 Sur 0 -- -- 78
2019-10-15 22:00:00 9.1 3 Este 5 Este 0 -- -- 77
2019-10-15 21:00:00 9.7 2 Oeste 10 Sudoeste 0 -- -- 72
2019-10-15 20:00:00 10.5 7 Sudoeste 10 Sudoeste 0 -- -- 69
2019-10-15 19:00:00 12.6 4 Oeste 16 Nordeste 0 -- -- 63
2019-10-15 18:00:00 14.1 7 Norte 21 Norte 0 -- -- 54
2019-10-15 17:00:00 13.8 13 Norte 25 Norte 0 -- -- 56
2019-10-15 16:00:00 13.7 13 Norte 35 Noroeste 0 -- -- 56
2019-10-15 15:00:00 14.4 15 Noroeste 27 Noroeste 0 -- -- 54
2019-10-15 14:00:00 12.2 15 Noroeste 31 Noroeste 0 -- -- 62
2019-10-15 13:00:00 11.9 13 Norte 24 Norte 0 -- -- 66
2019-10-15 12:00:00 10.8 10 Norte 18 Nordeste 0 -- -- 74
2019-10-15 11:00:00 9.7 8 Norte 14 Norte 0 -- -- 80
2019-10-15 10:00:00 7.8 4 Norte 8 Oeste 0 -- -- 90
2019-10-15 09:00:00 5.8 5 Noroeste 10 Noroeste 0 -- -- 94
2019-10-15 08:00:00 6.5 3 Norte 9 Este 0.2 -- -- 94
2019-10-15 07:00:00 6.7 8 Este 14 Noroeste 0.2 -- -- 94
2019-10-15 06:00:00 6.8 8 Noroeste 24 Norte 1.6 -- -- 92
2019-10-15 05:00:00 7.3 4 Noroeste 32 Noroeste 0.2 -- -- 90
2019-10-15 04:00:00 8.3 27 Oeste 37 Oeste 0 -- -- 81
2019-10-15 03:00:00 8.8 7 Noroeste 12 Noroeste 0 -- -- 85
2019-10-15 02:00:00 9.2 4 Sudeste 8 Oeste 0 -- -- 87
2019-10-15 01:00:00 9.7 4 Oeste 17 Oeste 0.6 -- -- 90
2019-10-15 00:00:00 10 4 Sudoeste 18 Este 0.8 -- -- 92
2019-10-14 23:00:00 10.6 6 Nordeste 24 Oeste 0 -- -- 85
2019-10-14 22:00:00 11 15 Nordeste 65 Oeste 3.6 -- -- 82
2019-10-14 21:00:00 14.3 19 Sur 30 Sudeste 0 -- -- 83
2019-10-14 20:00:00 14.4 15 Sudoeste 28 Sudeste 0 -- -- 83
2019-10-14 19:00:00 14.5 19 Sur 31 Sur 0 -- -- 81
2019-10-14 18:00:00 15.5 23 Sudeste 42 Sudeste 0.2 -- -- 78
2019-10-14 17:00:00 15.5 14 Sudeste 40 Sudeste 7.8 -- -- 88
2019-10-14 16:00:00 17.9 10 Sur 41 Sudeste 0.2 -- -- 69
2019-10-14 15:00:00 18.6 19 Sur 62 Sudeste 0 -- -- 69
2019-10-14 14:00:00 16.1 25 Sudeste 65 Sudeste 2.4 -- -- 80
2019-10-14 13:00:00 15.3 39 Sudeste 63 Sudeste 6.8 -- -- 88
2019-10-14 12:00:00 15.9 36 Sudeste 64 Sudeste 2.6 -- -- 85
2019-10-14 11:00:00 18.2 19 Sur 49 Sudeste 0 -- -- 70
2019-10-14 10:00:00 17.7 25 Sudeste 40 Sur 0 -- -- 68
2019-10-14 09:00:00 16.5 23 Sur 33 Sur 0 -- -- 75
2019-10-14 08:00:00 17 27 Sur 39 Sur 0 -- -- 68
2019-10-14 07:00:00 16.5 26 Sur 41 Sur 0 -- -- 72
2019-10-14 06:00:00 16.2 28 Sur 42 Sur 0 -- -- 76
2019-10-14 05:00:00 16.5 26 Sur 46 Sur 0 -- -- 75
2019-10-14 04:00:00 16.5 28 Sur 42 Sur 0 -- -- 76
2019-10-14 03:00:00 16.9 27 Sur 37 Sur 0 -- -- 75
2019-10-14 02:00:00 17.7 23 Sur 33 Sur 0 -- -- 74
2019-10-14 01:00:00 18.4 21 Sur 39 Sur 0 -- -- 72
2019-10-14 00:00:00 18.3 21 Sur 33 Sudeste 0 -- -- 70
2019-10-13 23:00:00 18.8 22 Sur 40 Sur 0 -- -- 71
2019-10-13 22:00:00 19.7 17 Sudeste 28 Sur 0 -- -- 68
2019-10-13 21:00:00 20.5 15 Sur 27 Sur 0 -- -- 63
2019-10-13 20:00:00 21.4 15 Sur 26 Sur 0 -- -- 58
2019-10-13 19:00:00 22.7 18 Sur 31 Sur 0 -- -- 52
2019-10-13 18:00:00 23.9 19 Sur 32 Sur 0 -- -- 48
2019-10-13 17:00:00 24.6 16 Sur 33 Sur 0 -- -- 46
2019-10-13 16:00:00 24.2 22 Sur 38 Sur 0 -- -- 47
2019-10-13 15:00:00 23.8 22 Sur 44 Sur 0 -- -- 49
2019-10-13 14:00:00 22.5 29 Sur 48 Sur 0 -- -- 55
2019-10-13 13:00:00 21.5 32 Sur 46 Sur 0 -- -- 60
2019-10-13 12:00:00 20.4 31 Sur 44 Sur 0 -- -- 66
2019-10-13 11:00:00 18.8 19 Sur 39 Sur 0 -- -- 70
2019-10-13 10:00:00 18 27 Sur 41 Sur 0 -- -- 70
2019-10-13 09:00:00 16.9 24 Sudeste 37 Sur 0 -- -- 73
2019-10-13 08:00:00 15.5 23 Sur 41 Sur 0 -- -- 79
2019-10-13 07:00:00 15.6 27 Sur 37 Sur 0 -- -- 80
2019-10-13 06:00:00 16.3 27 Sur 54 Sur 0 -- -- 76
2019-10-13 05:00:00 17.2 39 Sur 53 Sur 0 -- -- 71
2019-10-13 04:00:00 16.8 30 Sur 39 Sur 0 -- -- 76
2019-10-13 03:00:00 17.3 31 Sur 51 Sudoeste 0 -- -- 75
2019-10-13 02:00:00 17.6 22 Sur 40 Sur 0 -- -- 75
2019-10-13 01:00:00 18.1 31 Sur 40 Sur 0 -- -- 73
2019-10-13 00:00:00 18.4 26 Sur 42 Sur 0 -- -- 72
2019-10-12 23:00:00 18.7 30 Sur 43 Sur 0 -- -- 72
2019-10-12 22:00:00 19.6 21 Sur 29 Sur 0 -- -- 69
2019-10-12 21:00:00 20.5 19 Sur 33 Sur 0 -- -- 66
2019-10-12 20:00:00 21.4 19 Sur 35 Sur 0 -- -- 61
2019-10-12 19:00:00 22.3 22 Sur 40 Sur 0 -- -- 56
2019-10-12 18:00:00 23.3 27 Sur 43 Sur 0 -- -- 50
2019-10-12 17:00:00 24 27 Sur 41 Sur 0 -- -- 46
2019-10-12 16:00:00 24.8 25 Sur 40 Sur 0 -- -- 46
2019-10-12 15:00:00 24.4 25 Sur 43 Sur 0 -- -- 46
2019-10-12 14:00:00 22.6 29 Sur 45 Sur 0 -- -- 54
2019-10-12 13:00:00 20.9 29 Sur 49 Sur 0 -- -- 64
2019-10-12 12:00:00 20.8 25 Sur 39 Sur 0 -- -- 63
2019-10-12 11:00:00 18.8 22 Sur 34 Sur 0 -- -- 73
2019-10-12 10:00:00 17.8 21 Sur 33 Sudeste 0 -- -- 77
2019-10-12 09:00:00 17.2 22 Sur 36 Sur 0 -- -- 80
2019-10-12 08:00:00 17.3 9 Sudoeste 37 Sur 0 -- -- 78
2019-10-12 07:00:00 17.4 29 Sur 63 Sudoeste 0 -- -- 80
2019-10-12 06:00:00 17.2 39 Sur 61 Sur 0 -- -- 82
2019-10-12 05:00:00 17.6 16 Sur 32 Sur 0 -- -- 79
2019-10-12 04:00:00 17.3 22 Sur 32 Sur 0 -- -- 82
2019-10-12 03:00:00 17.9 21 Sur 36 Sur 0 -- -- 80
2019-10-12 02:00:00 18.3 26 Sur 42 Sur 0 -- -- 78
2019-10-12 01:00:00 18.3 22 Sudoeste 32 Sur 0 -- -- 76
2019-10-12 00:00:00 18.7 23 Sur 32 Sur 0 -- -- 70
2019-10-11 23:00:00 19.6 26 Sur 38 Sur 0 -- -- 69
2019-10-11 22:00:00 20.2 29 Sur 47 Sur 0 -- -- 65
2019-10-11 21:00:00 20.4 26 Sudoeste 39 Sudoeste 0 -- -- 64
2019-10-11 20:00:00 21.2 29 Sur 40 Sur 0 -- -- 59
2019-10-11 19:00:00 22.9 17 Sur 27 Sur 0 -- -- 52
2019-10-11 18:00:00 25.1 10 Sur 23 Sudoeste 0 -- -- 46
2019-10-11 17:00:00 25.4 14 Sur 26 Sur 0 -- -- 44
2019-10-11 16:00:00 25 16 Sur 27 Sudeste 0 -- -- 44
2019-10-11 15:00:00 24.5 15 Sur 27 Sur 0 -- -- 45
2019-10-11 14:00:00 23.3 17 Sur 27 Sur 0 -- -- 48
2019-10-11 13:00:00 21.6 16 Sur 28 Sur 0 -- -- 48
2019-10-11 12:00:00 19.7 18 Sur 32 Sur 0 -- -- 44
2019-10-11 11:00:00 17.3 21 Sur 30 Sur 0 -- -- 50
2019-10-11 10:00:00 15.7 13 Sur 27 Sur 0 -- -- 56
2019-10-11 09:00:00 13 21 Sudeste 31 Sudeste 0 -- -- 65
2019-10-11 08:00:00 11.3 20 Sur 27 Sur 0 -- -- 65
2019-10-11 07:00:00 13.2 17 Sur 30 Sur 0 -- -- 58
2019-10-11 06:00:00 11.9 21 Sur 26 Sur 0 -- -- 61
2019-10-11 05:00:00 10.5 5 Este 19 Sur 0 -- -- 65
2019-10-11 04:00:00 13.5 15 Sur 25 Sur 0 -- -- 56
2019-10-11 03:00:00 12.6 13 Sur 23 Sudeste 0 -- -- 60
2019-10-11 02:00:00 13.4 13 Sudeste 25 Sudeste 0 -- -- 58
2019-10-11 01:00:00 13.9 18 Sudeste 27 Sudeste 0 -- -- 55
2019-10-11 00:00:00 13.7 8 Este 14 Sudeste 0 -- -- 55
2019-10-10 23:00:00 15.1 9 Sur 19 Sudeste 0 -- -- 52
2019-10-10 22:00:00 15.5 5 Sur 12 Sudoeste 0 -- -- 52
2019-10-10 21:00:00 15.7 4 Sudoeste 10 Sudoeste 0 -- -- 51
2019-10-10 20:00:00 17.1 6 Sudeste 12 Sudeste 0 -- -- 48
2019-10-10 19:00:00 20.3 3 Sudoeste 13 Nordeste 0 -- -- 35
2019-10-10 18:00:00 21.6 7 Nordeste 17 Nordeste 0 -- -- 31
2019-10-10 17:00:00 22.3 7 Nordeste 23 Nordeste 0 -- -- 33
2019-10-10 16:00:00 21.3 12 Nordeste 20 Nordeste 0 -- -- 37
2019-10-10 15:00:00 20.7 8 Nordeste 15 Norte 0 -- -- 41
2019-10-10 14:00:00 19 4 Norte 11 Nordeste 0 -- -- 44
2019-10-10 13:00:00 16.9 4 Nordeste 11 Noroeste 0 -- -- 53
2019-10-10 12:00:00 14.1 6 Noroeste 10 Noroeste 0 -- -- 59
2019-10-10 11:00:00 13 4 Este 7 Este 0 -- -- 66
2019-10-10 10:00:00 8.3 2 Noroeste 5 Este 0 -- -- 82
2019-10-10 09:00:00 6.7 0 Calma 3 Oeste 0 -- -- 90
2019-10-10 08:00:00 5.3 0 Calma 3 Sudoeste 0 -- -- 90
2019-10-10 07:00:00 6.2 0 Calma 6 Noroeste 0 -- -- 88
2019-10-10 06:00:00 6.7 3 Noroeste 6 Sur 0 -- -- 83
2019-10-10 05:00:00 6.5 0 Calma 5 Noroeste 0 -- -- 84
2019-10-10 04:00:00 7.4 6 Sudoeste 8 Sudoeste 0 -- -- 81
2019-10-10 03:00:00 7.9 0 Calma 8 Sudoeste 0 -- -- 80
2019-10-10 02:00:00 9.2 5 Sur 8 Sur 0 -- -- 76
2019-10-10 01:00:00 9.7 5 Sur 7 Sur 0 -- -- 74
2019-10-10 00:00:00 9.9 2 Oeste 8 Sudoeste 0 -- -- 73
2019-10-09 23:00:00 10.8 3 Sudeste 9 Noroeste 0 -- -- 70
2019-10-09 22:00:00 11.1 3 Oeste 16 Noroeste 0 -- -- 69
2019-10-09 21:00:00 11.7 8 Noroeste 23 Norte 0 -- -- 68
2019-10-09 20:00:00 13.1 10 Norte 31 Norte 0 -- -- 65
2019-10-09 19:00:00 16.3 24 Norte 36 Norte 0 -- -- 55
2019-10-09 18:00:00 19.2 21 Noroeste 36 Norte 0 -- -- 46
2019-10-09 17:00:00 20.6 22 Noroeste 33 Noroeste 0 -- -- 44
2019-10-09 16:00:00 21.2 21 Noroeste 33 Noroeste 0 -- -- 44
2019-10-09 15:00:00 20.8 18 Noroeste 30 Noroeste 0 -- -- 48
2019-10-09 14:00:00 20.2 18 Noroeste 31 Noroeste 0 -- -- 54
2019-10-09 13:00:00 19 13 Norte 24 Norte 0 -- -- 60
2019-10-09 12:00:00 17.9 6 Norte 14 Noroeste 0 -- -- 65
2019-10-09 11:00:00 16.1 4 Este 9 Este 0 -- -- 70
2019-10-09 10:00:00 13.7 0 Calma 4 Sur 0 -- -- 81
2019-10-09 09:00:00 12.2 0 Calma 10 Sur 0 -- -- 87
2019-10-09 08:00:00 10.7 3 Noroeste 9 Noroeste 0 -- -- 82
2019-10-09 07:00:00 10.9 5 Norte 12 Noroeste 0 -- -- 83
2019-10-09 06:00:00 12 6 Noroeste 11 Noroeste 0 -- -- 80
2019-10-09 05:00:00 12.4 3 Sudoeste 8 Sudoeste 0 -- -- 80
2019-10-09 04:00:00 13.9 4 Sudoeste 5 Noroeste 0 -- -- 73
2019-10-09 03:00:00 13.7 6 Noroeste 8 Sudoeste 0 -- -- 72
2019-10-09 02:00:00 15.3 6 Sudoeste 7 Sudoeste 0 -- -- 67
2019-10-09 01:00:00 15.9 4 Sudoeste 7 Sudeste 0 -- -- 63
2019-10-09 00:00:00 16.4 5 Sur 9 Sudeste 0 -- -- 60
2019-10-08 23:00:00 17 4 Sudeste 9 Sudoeste 0 -- -- 58
2019-10-08 22:00:00 19.1 3 Sudeste 9 Sur 0 -- -- 50
2019-10-08 21:00:00 20.7 3 Nordeste 9 Oeste 0 -- -- 45
2019-10-08 20:00:00 22 3 Sudoeste 11 Sudoeste 0 -- -- 44
2019-10-08 19:00:00 24.8 8 Sudoeste 12 Sur 0 -- -- 40
2019-10-08 18:00:00 26.6 9 Sudoeste 18 Sudoeste 0 -- -- 37
2019-10-08 17:00:00 26.9 6 Oeste 17 Sur 0 -- -- 38
2019-10-08 16:00:00 27.1 9 Sur 18 Sudeste 0 -- -- 37
2019-10-08 15:00:00 26.4 8 Sur 16 Sur 0 -- -- 39
2019-10-08 14:00:00 25.3 6 Sudeste 14 Sudeste 0 -- -- 41
2019-10-08 13:00:00 23.5 3 Sudeste 17 Sudeste 0 -- -- 46
2019-10-08 12:00:00 21.7 7 Este 12 Este 0 -- -- 52
2019-10-08 11:00:00 17.6 3 Norte 10 Este 0 -- -- 61
2019-10-08 10:00:00 14.7 3 Norte 6 Este 0 -- -- 68
2019-10-08 09:00:00 11.5 5 Noroeste 6 Noroeste 0 -- -- 77
2019-10-08 08:00:00 10.8 0 Calma 7 Nordeste 0 -- -- 80
2019-10-08 07:00:00 11.7 2 Sudeste 5 Norte 0 -- -- 77
2019-10-08 06:00:00 11.7 5 Noroeste 6 Noroeste 0 -- -- 76
2019-10-08 05:00:00 12.8 0 Calma 5 Noroeste 0 -- -- 71
2019-10-08 04:00:00 13.2 0 Calma 7 Sudoeste 0 -- -- 71
2019-10-08 03:00:00 13.1 3 Noroeste 10 Sur 0 -- -- 72
2019-10-08 02:00:00 14.8 6 Sur 14 Sudoeste 0 -- -- 67
2019-10-08 01:00:00 15 0 Calma 8 Nordeste 0 -- -- 67
2019-10-08 00:00:00 16.4 2 Sur 12 Sudeste 0 -- -- 64
2019-10-07 23:00:00 17.1 3 Sur 11 Sur 0 -- -- 63
2019-10-07 22:00:00 17.8 10 Norte 30 Noroeste 0 -- -- 58
2019-10-07 21:00:00 18.3 20 Noroeste 38 Noroeste 0 -- -- 53
2019-10-07 20:00:00 19.2 23 Noroeste 44 Noroeste 0 -- -- 50
2019-10-07 19:00:00 21 31 Noroeste 44 Noroeste 0 -- -- 43
2019-10-07 18:00:00 22.6 28 Noroeste 48 Oeste 0 -- -- 38
2019-10-07 17:00:00 23.7 34 Noroeste 52 Noroeste 0 -- -- 33
2019-10-07 16:00:00 24 36 Noroeste 50 Noroeste 0 -- -- 33
2019-10-07 15:00:00 22.6 35 Noroeste 52 Noroeste 0 -- -- 32
2019-10-07 14:00:00 20.4 32 Noroeste 48 Noroeste 0 -- -- 33
2019-10-07 13:00:00 19.2 36 Noroeste 47 Noroeste 0 -- -- 35
2019-10-07 12:00:00 18.4 32 Noroeste 50 Noroeste 0 -- -- 37
2019-10-07 11:00:00 16.2 27 Noroeste 53 Noroeste 0 -- -- 44
2019-10-07 10:00:00 14 31 Noroeste 54 Noroeste 0 -- -- 53
2019-10-07 09:00:00 12.4 33 Noroeste 51 Noroeste 0 -- -- 57
2019-10-07 08:00:00 11.8 34 Noroeste 58 Noroeste 0 -- -- 60
2019-10-07 07:00:00 12.2 36 Noroeste 50 Noroeste 0 -- -- 59
2019-10-07 06:00:00 12.4 32 Noroeste 48 Noroeste 0 -- -- 57
2019-10-07 05:00:00 12 30 Noroeste 47 Noroeste 0 -- -- 61
2019-10-07 04:00:00 11.7 30 Noroeste 51 Noroeste 0 -- -- 63
2019-10-07 03:00:00 12 26 Noroeste 45 Noroeste 0 -- -- 56
2019-10-07 02:00:00 12.5 30 Noroeste 50 Norte 0 -- -- 52
2019-10-07 01:00:00 12.7 39 Noroeste 54 Noroeste 0 -- -- 51
2019-10-07 00:00:00 13.2 33 Noroeste 58 Noroeste 0 -- -- 61
2019-10-06 23:00:00 13.5 29 Noroeste 43 Noroeste 0 -- -- 63
2019-10-06 22:00:00 14 21 Noroeste 39 Noroeste 0 -- -- 66
2019-10-06 21:00:00 14.4 28 Norte 47 Norte 0 -- -- 63
2019-10-06 20:00:00 15.3 22 Norte 49 Noroeste 0 -- -- 66
2019-10-06 19:00:00 17.1 25 Noroeste 45 Norte 0 -- -- 61
2019-10-06 18:00:00 19.2 29 Noroeste 50 Norte 0 -- -- 54
2019-10-06 17:00:00 20.5 27 Norte 43 Norte 0 -- -- 49
2019-10-06 16:00:00 20.7 22 Norte 46 Noroeste 0 -- -- 51
2019-10-06 15:00:00 19.3 35 Noroeste 51 Noroeste 0 -- -- 56
2019-10-06 14:00:00 19.4 26 Noroeste 36 Noroeste 0 -- -- 56
2019-10-06 13:00:00 17.7 20 Noroeste 28 Noroeste 0 -- -- 58
2019-10-06 12:00:00 16.5 8 Norte 16 Norte 0 -- -- 61
2019-10-06 11:00:00 14.3 5 Nordeste 10 Este 0 -- -- 71
2019-10-06 10:00:00 11.1 3 Sudeste 7 Sudeste 0 -- -- 90
2019-10-06 09:00:00 9.8 2 Sur 3 Oeste 0 -- -- 93
2019-10-06 08:00:00 8.3 2 Sur 4 Oeste 0 -- -- 93
2019-10-06 07:00:00 8.7 5 Oeste 7 Oeste 0 -- -- 92
2019-10-06 06:00:00 9.3 3 Sudeste 6 Sudeste 0 -- -- 91
2019-10-06 05:00:00 8.9 5 Sudeste 13 Norte 0 -- -- 91
2019-10-06 04:00:00 10.3 4 Oeste 6 Oeste 0 -- -- 86
2019-10-06 03:00:00 10 7 Oeste 12 Noroeste 0 -- -- 85
2019-10-06 02:00:00 12.5 8 Sudoeste 9 Sudoeste 0 -- -- 77
2019-10-06 01:00:00 13.1 4 Sur 6 Este 0 -- -- 76
2019-10-06 00:00:00 14.7 3 Sur 7 Sudeste 0 -- -- 68
2019-10-05 23:00:00 15.9 0 Calma 8 Sudoeste 0 -- -- 61
2019-10-05 22:00:00 17.4 2 Norte 7 Sudoeste 0 -- -- 56
2019-10-05 21:00:00 18.3 2 Este 12 Noroeste 0 -- -- 48
2019-10-05 20:00:00 20 5 Noroeste 18 Oeste 0 -- -- 47
2019-10-05 19:00:00 23.1 16 Oeste 24 Oeste 0 -- -- 44
2019-10-05 18:00:00 25.9 16 Noroeste 24 Noroeste 0 -- -- 34
2019-10-05 17:00:00 25.8 17 Oeste 27 Oeste 0 -- -- 36
2019-10-05 16:00:00 25.6 15 Noroeste 24 Norte 0 -- -- 38
2019-10-05 15:00:00 23.6 9 Norte 17 Nordeste 0 -- -- 40
2019-10-05 14:00:00 21.9 8 Norte 17 Noroeste 0 -- -- 43
2019-10-05 13:00:00 19.6 6 Este 13 Noroeste 0 -- -- 48
2019-10-05 12:00:00 17.3 4 Norte 11 Este 0 -- -- 54
2019-10-05 11:00:00 15.9 5 Sudeste 9 Sudeste 0 -- -- 60
2019-10-05 10:00:00 13.7 3 Este 8 Este 0 -- -- 72
2019-10-05 09:00:00 10.2 3 Sur 4 Sur 0 -- -- 83
2019-10-05 08:00:00 9.2 0 Calma 3 Oeste 0 -- -- 87
2019-10-05 07:00:00 9.4 0 Calma 6 Noroeste 0 -- -- 85
2019-10-05 06:00:00 10 2 Noroeste 4 Sur 0 -- -- 82
2019-10-05 05:00:00 11.2 3 Sur 8 Este 0 -- -- 80
2019-10-05 04:00:00 12.1 5 Sudeste 8 Sudeste 0 -- -- 77
2019-10-05 03:00:00 13.3 4 Nordeste 7 Norte 0 -- -- 70
2019-10-05 02:00:00 13.8 8 Noroeste 25 Noroeste 0 -- -- 67
2019-10-05 01:00:00 14.6 15 Noroeste 24 Noroeste 0 -- -- 63
2019-10-05 00:00:00 14.4 11 Noroeste 23 Noroeste 0 -- -- 65
2019-10-04 23:00:00 14.5 13 Noroeste 23 Noroeste 0 -- -- 69
2019-10-04 22:00:00 15.5 10 Noroeste 19 Noroeste 0 -- -- 67
2019-10-04 21:00:00 16.7 12 Noroeste 27 Norte 0 -- -- 67
2019-10-04 20:00:00 18.5 19 Norte 28 Norte 0 -- -- 61
2019-10-04 19:00:00 21.5 19 Norte 30 Norte 0 -- -- 53
2019-10-04 18:00:00 23.2 15 Norte 28 Noroeste 0 -- -- 48
2019-10-04 17:00:00 23.9 19 Noroeste 28 Noroeste 0 -- -- 48
2019-10-04 16:00:00 23.4 15 Noroeste 28 Norte 0 -- -- 51
2019-10-04 15:00:00 23.6 17 Noroeste 36 Noroeste 0 -- -- 48
2019-10-04 14:00:00 23.3 21 Noroeste 36 Noroeste 0 -- -- 49
2019-10-04 13:00:00 22.2 25 Noroeste 36 Noroeste 0 -- -- 54
2019-10-04 12:00:00 20.9 18 Noroeste 28 Noroeste 0 -- -- 55
2019-10-04 11:00:00 17.8 5 Nordeste 10 Nordeste 0 -- -- 60
2019-10-04 10:00:00 13.3 2 Sudeste 5 Este 0 -- -- 60
2019-10-04 09:00:00 10.5 2 Sudeste 5 Nordeste 0 -- -- 68
2019-10-04 08:00:00 8.8 2 Noroeste 5 Noroeste 0 -- -- 64
2019-10-04 07:00:00 9.8 0 Calma 4 Oeste 0 -- -- 59
2019-10-04 06:00:00 9.6 2 Norte 5 Noroeste 0 -- -- 60
2019-10-04 05:00:00 10.4 2 Este 5 Sudoeste 0 -- -- 58
2019-10-04 04:00:00 12 3 Sudoeste 10 Sudoeste 0 -- -- 48
2019-10-04 03:00:00 12 0 Calma 8 Sur 0 -- -- 47
2019-10-04 02:00:00 12.7 4 Sudeste 15 Noroeste 0 -- -- 51
2019-10-04 01:00:00 13.6 5 Sudeste 17 Sur 0 -- -- 49
2019-10-04 00:00:00 13.2 5 Nordeste 14 Este 0 -- -- 55
2019-10-03 23:00:00 14.2 7 Nordeste 18 Noroeste 0 -- -- 51
2019-10-03 22:00:00 14.9 12 Noroeste 26 Noroeste 0 -- -- 50
2019-10-03 21:00:00 16.4 17 Noroeste 28 Noroeste 0 -- -- 46
2019-10-03 20:00:00 17.7 20 Noroeste 38 Noroeste 0 -- -- 43
2019-10-03 19:00:00 20.8 27 Noroeste 41 Noroeste 0 -- -- 30
2019-10-03 18:00:00 22.8 25 Noroeste 39 Noroeste 0 -- -- 23
2019-10-03 17:00:00 23.9 23 Noroeste 42 Noroeste 0 -- -- 32
2019-10-03 16:00:00 24.6 22 Noroeste 33 Noroeste 0 -- -- 23
2019-10-03 15:00:00 22.1 6 Noroeste 21 Nordeste 0 -- -- 37
2019-10-03 14:00:00 19.7 6 Norte 14 Nordeste 0 -- -- 46
2019-10-03 13:00:00 17.1 4 Norte 13 Este 0 -- -- 51
2019-10-03 12:00:00 15 6 Este 14 Este 0 -- -- 58
2019-10-03 11:00:00 12.8 3 Norte 8 Nordeste 0 -- -- 70
2019-10-03 10:00:00 9.4 0 Calma 5 Nordeste 0 -- -- 85
2019-10-03 09:00:00 6.7 3 Oeste 4 Noroeste 0 -- -- 91
2019-10-03 08:00:00 6.8 5 Noroeste 6 Noroeste 0 -- -- 90
2019-10-03 07:00:00 7.6 4 Oeste 5 Oeste 0 -- -- 88
2019-10-03 06:00:00 8.5 0 Calma 10 Sudoeste 0 -- -- 82
2019-10-03 05:00:00 9.8 8 Sudoeste 11 Sudoeste 0 -- -- 79
2019-10-03 04:00:00 10.8 3 Este 10 Noroeste 0 -- -- 74
2019-10-03 03:00:00 11.4 10 Noroeste 26 Noroeste 0 -- -- 72
2019-10-03 02:00:00 11.8 18 Noroeste 32 Oeste 0 -- -- 70
2019-10-03 01:00:00 12.4 19 Noroeste 39 Norte 0 -- -- 66
2019-10-03 00:00:00 12.7 25 Noroeste 42 Noroeste 0 -- -- 69
2019-10-02 23:00:00 13.2 27 Noroeste 44 Noroeste 0 -- -- 66
2019-10-02 22:00:00 13.6 34 Noroeste 46 Noroeste 0 -- -- 67
2019-10-02 21:00:00 14 28 Noroeste 45 Noroeste 0 -- -- 66
2019-10-02 20:00:00 14.5 31 Norte 53 Noroeste 0 -- -- 65
2019-10-02 19:00:00 15.4 31 Noroeste 51 Noroeste 0 -- -- 63
2019-10-02 18:00:00 17.1 37 Noroeste 55 Noroeste 0 -- -- 57
2019-10-02 17:00:00 18.1 32 Noroeste 53 Noroeste 0 -- -- 57
2019-10-02 16:00:00 17.7 35 Noroeste 53 Noroeste 0 -- -- 57
2019-10-02 15:00:00 18.5 34 Norte 55 Noroeste 0 -- -- 55
2019-10-02 14:00:00 17.2 27 Noroeste 48 Noroeste 0 -- -- 63
2019-10-02 13:00:00 16.4 28 Noroeste 42 Noroeste 0 -- -- 65
2019-10-02 12:00:00 15.3 28 Noroeste 48 Noroeste 0 -- -- 68
2019-10-02 11:00:00 14.8 26 Noroeste 38 Noroeste 0 -- -- 73
2019-10-02 10:00:00 14.4 27 Noroeste 38 Noroeste 0 -- -- 72
2019-10-02 09:00:00 12.4 19 Noroeste 30 Norte 0 -- -- 82
2019-10-02 08:00:00 12.2 20 Norte 32 Noroeste 0 -- -- 80
2019-10-02 07:00:00 12.6 21 Noroeste 33 Noroeste 0 -- -- 75
2019-10-02 06:00:00 13.1 19 Noroeste 35 Noroeste 0 -- -- 73
2019-10-02 05:00:00 14.1 22 Noroeste 37 Norte 0 -- -- 63
2019-10-02 04:00:00 13.9 24 Norte 40 Norte 0 -- -- 67
2019-10-02 03:00:00 14.6 20 Noroeste 38 Noroeste 0 -- -- 67
2019-10-02 02:00:00 15.5 18 Noroeste 35 Noroeste 0 -- -- 68
2019-10-02 01:00:00 15.5 17 Oeste 26 Oeste 0 -- -- 67
2019-10-02 00:00:00 16.1 17 Noroeste 33 Noroeste 0 -- -- 63
2019-10-01 23:00:00 16.2 18 Noroeste 37 Noroeste 0 -- -- 62
2019-10-01 22:00:00 16 23 Norte 31 Noroeste 0 -- -- 63
2019-10-01 21:00:00 17 21 Noroeste 36 Norte 0 -- -- 61
2019-10-01 20:00:00 18.5 24 Noroeste 36 Noroeste 0 -- -- 59
2019-10-01 19:00:00 21.8 21 Norte 33 Norte 0 -- -- 47
2019-10-01 18:00:00 23.2 21 Norte 33 Noroeste 0 -- -- 46
2019-10-01 17:00:00 24.1 22 Noroeste 45 Noroeste 0 -- -- 45
2019-10-01 16:00:00 24.2 28 Noroeste 40 Noroeste 0 -- -- 43
2019-10-01 15:00:00 26 23 Noroeste 33 Oeste 0 -- -- 42
2019-10-01 14:00:00 25.5 18 Noroeste 29 Norte 0 -- -- 42
2019-10-01 13:00:00 25.2 10 Nordeste 18 Este 0 -- -- 40
2019-10-01 12:00:00 22.2 5 Noroeste 10 Noroeste 0 -- -- 47
2019-10-01 11:00:00 19.3 3 Norte 9 Este 0 -- -- 53
2019-10-01 10:00:00 16 4 Norte 9 Noroeste 0 -- -- 62
2019-10-01 09:00:00 13.5 4 Noroeste 8 Norte 0 -- -- 68
2019-10-01 08:00:00 12.8 6 Norte 9 Norte 0 -- -- 70
2019-10-01 07:00:00 13.4 3 Noroeste 17 Sur 0 -- -- 68
2019-10-01 06:00:00 13.7 0 Calma 6 Sudoeste 0 -- -- 67
2019-10-01 05:00:00 14.1 3 Nordeste 6 Sudeste 0 -- -- 65
2019-10-01 04:00:00 15.6 0 Calma 7 Norte 0 -- -- 60
2019-10-01 03:00:00 16.1 5 Noroeste 12 Sur 0 -- -- 59
2019-10-01 02:00:00 17.7 4 Sudeste 11 Sudeste 0 -- -- 55
2019-10-01 01:00:00 18.7 8 Sur 10 Sur 0 -- -- 53
2019-10-01 00:00:00 18 3 Sudoeste 5 Sudoeste 0 -- -- 52
2019-09-30 23:00:00 19.6 6 Sudeste 9 Sudeste 0 -- -- 48
2019-09-30 22:00:00 20.9 6 Sudoeste 9 Sudoeste 0 -- -- 45
2019-09-30 21:00:00 21.5 6 Oeste 11 Sudeste 0 -- -- 43
2019-09-30 20:00:00 23 5 Sudoeste 17 Sur 0 -- -- 40
2019-09-30 19:00:00 26.9 5 Sudoeste 26 Sur 0 -- -- 33
2019-09-30 18:00:00 27.2 15 Sur 28 Sur 0 -- -- 32
2019-09-30 17:00:00 28 11 Sudeste 21 Este 0 -- -- 34
2019-09-30 16:00:00 27.5 5 Nordeste 18 Nordeste 0 -- -- 35
2019-09-30 15:00:00 27.1 8 Nordeste 17 Nordeste 0 -- -- 35
2019-09-30 14:00:00 26.3 8 Noroeste 14 Noroeste 0 -- -- 35
2019-09-30 13:00:00 24.4 5 Norte 10 Norte 0 -- -- 38
2019-09-30 12:00:00 21.6 3 Nordeste 9 Noroeste 0 -- -- 47
2019-09-30 11:00:00 17.8 3 Norte 8 Este 0 -- -- 58
2019-09-30 10:00:00 15.1 5 Este 10 Norte 0 -- -- 67
2019-09-30 09:00:00 12.4 2 Sudeste 7 Oeste 0 -- -- 75
2019-09-30 08:00:00 10.9 4 Oeste 5 Oeste 0 -- -- 78
2019-09-30 07:00:00 11.7 0 Calma 5 Oeste 0 -- -- 73
2019-09-30 06:00:00 11.9 0 Calma 6 Noroeste 0 -- -- 73
2019-09-30 05:00:00 12.8 2 Oeste 5 Sudoeste 0 -- -- 70
2019-09-30 04:00:00 13.8 2 Norte 4 Noroeste 0 -- -- 66
2019-09-30 03:00:00 14.6 0 Calma 4 Sudoeste 0 -- -- 60
2019-09-30 02:00:00 15 0 Calma 6 Noroeste 0 -- -- 56
2019-09-30 01:00:00 16 4 Oeste 5 Oeste 0 -- -- 54
2019-09-30 00:00:00 17.6 3 Norte 5 Norte 0 -- -- 47
2019-09-29 23:00:00 18.1 8 Noroeste 10 Noroeste 0 -- -- 45
2019-09-29 22:00:00 20.1 2 Sudoeste 5 Oeste 0 -- -- 37
2019-09-29 21:00:00 20.7 4 Oeste 9 Oeste 0 -- -- 35
2019-09-29 20:00:00 22.1 6 Oeste 19 Noroeste 0 -- -- 32
2019-09-29 19:00:00 26.8 9 Noroeste 27 Noroeste 0 -- -- 25
2019-09-29 18:00:00 27.6 19 Noroeste 37 Noroeste 0 -- -- 24
2019-09-29 17:00:00 27.8 24 Noroeste 38 Noroeste 0 -- -- 20
2019-09-29 16:00:00 28.6 18 Noroeste 29 Norte 0 -- -- 24
2019-09-29 15:00:00 27.8 9 Norte 22 Noroeste 0 -- -- 30
2019-09-29 14:00:00 27.2 7 Sur 22 Sur 0 -- -- 35
2019-09-29 13:00:00 25.8 8 Sudeste 22 Sur 0 -- -- 40
2019-09-29 12:00:00 23.6 15 Sur 21 Sur 0 -- -- 47
2019-09-29 11:00:00 21.1 4 Este 13 Sudeste 0 -- -- 49
2019-09-29 10:00:00 16.8 5 Nordeste 13 Sur 0 -- -- 61
2019-09-29 09:00:00 14.6 6 Este 16 Sur 0 -- -- 66
2019-09-29 08:00:00 12.2 4 Sudoeste 16 Sudoeste 0 -- -- 73
2019-09-29 07:00:00 14.4 8 Sudeste 19 Sur 0 -- -- 65
2019-09-29 06:00:00 14.5 6 Sur 17 Sur 0 -- -- 64
2019-09-29 05:00:00 16.4 14 Sur 27 Sur 0 -- -- 59
2019-09-29 04:00:00 15.6 14 Sur 25 Sur 0 -- -- 62
2019-09-29 03:00:00 15.4 5 Sudoeste 13 Sur 0 -- -- 63
2019-09-29 02:00:00 17.6 12 Sur 18 Sur 0 -- -- 56
2019-09-29 01:00:00 18.6 8 Sudeste 20 Sudeste 0 -- -- 52
2019-09-29 00:00:00 18.1 12 Este 21 Este 0 -- -- 56
2019-09-28 23:00:00 18.2 8 Este 15 Sur 0 -- -- 55
2019-09-28 22:00:00 20.1 12 Sur 22 Sudoeste 0 -- -- 49
2019-09-28 21:00:00 20.7 15 Sur 22 Sur 0 -- -- 48
2019-09-28 20:00:00 20.4 13 Sudoeste 18 Sudoeste 0 -- -- 51
2019-09-28 19:00:00 23.9 10 Sudoeste 21 Sur 0 -- -- 42
2019-09-28 18:00:00 24.8 14 Sur 29 Sudeste 0 -- -- 40
2019-09-28 17:00:00 25.2 15 Sur 26 Sur 0 -- -- 40
2019-09-28 16:00:00 25.1 14 Sur 28 Sudeste 0 -- -- 40
2019-09-28 15:00:00 24.7 14 Sudeste 27 Sudoeste 0 -- -- 42
2019-09-28 14:00:00 24.4 14 Sur 26 Sudoeste 0 -- -- 41
2019-09-28 13:00:00 23.1 13 Sur 22 Sur 0 -- -- 49
2019-09-28 12:00:00 21 14 Sur 22 Sur 0 -- -- 55
2019-09-28 11:00:00 16.2 3 Nordeste 7 Nordeste 0 -- -- 67
2019-09-28 10:00:00 13.7 4 Norte 6 Nordeste 0 -- -- 78
2019-09-28 09:00:00 11.3 0 Calma 4 Noroeste 0 -- -- 89
2019-09-28 08:00:00 10.1 2 Norte 4 Noroeste 0 -- -- 89
2019-09-28 07:00:00 10.3 2 Nordeste 4 Noroeste 0 -- -- 89
2019-09-28 06:00:00 11 0 Calma 5 Norte 0 -- -- 88
2019-09-28 05:00:00 11.1 5 Noroeste 8 Noroeste 0 -- -- 86
2019-09-28 04:00:00 12.7 0 Calma 6 Sudoeste 0 -- -- 82
2019-09-28 03:00:00 12.6 4 Norte 10 Sudoeste 0 -- -- 79
2019-09-28 02:00:00 14.4 7 Sudoeste 9 Sudoeste 0 -- -- 74
2019-09-28 01:00:00 14.5 4 Oeste 9 Oeste 0 -- -- 74
2019-09-28 00:00:00 15.2 5 Oeste 9 Sudoeste 0 -- -- 70
2019-09-27 23:00:00 16.5 4 Oeste 9 Sudoeste 0 -- -- 59
2019-09-27 22:00:00 17.9 2 Noroeste 8 Oeste 0 -- -- 47
2019-09-27 21:00:00 19.7 3 Este 10 Noroeste 0 -- -- 43
2019-09-27 20:00:00 21.1 6 Oeste 17 Noroeste 0 -- -- 38
2019-09-27 19:00:00 24.7 12 Norte 18 Norte 0 -- -- 30
2019-09-27 18:00:00 26.3 12 Noroeste 25 Norte 0 -- -- 25
2019-09-27 17:00:00 26.4 12 Norte 29 Noroeste 0 -- -- 24
2019-09-27 16:00:00 25.8 21 Noroeste 33 Noroeste 0 -- -- 33
2019-09-27 15:00:00 25.6 15 Nordeste 26 Nordeste 0 -- -- 38
2019-09-27 14:00:00 24.3 5 Nordeste 16 Noroeste 0 -- -- 46
2019-09-27 13:00:00 23.1 9 Norte 19 Noroeste 0 -- -- 50
2019-09-27 12:00:00 21.1 5 Noroeste 9 Nordeste 0 -- -- 57
2019-09-27 11:00:00 18 3 Noroeste 9 Norte 0 -- -- 65
2019-09-27 10:00:00 15.8 4 Sudeste 8 Este 0 -- -- 72
2019-09-27 09:00:00 12.2 4 Noroeste 10 Noroeste 0 -- -- 83
2019-09-27 08:00:00 12.2 4 Este 8 Sur 0 -- -- 82
2019-09-27 07:00:00 11.9 6 Noroeste 7 Noroeste 0 -- -- 82
2019-09-27 06:00:00 12.3 3 Este 6 Noroeste 0 -- -- 81
2019-09-27 05:00:00 13.9 3 Sudeste 9 Sudoeste 0 -- -- 75
2019-09-27 04:00:00 14.2 2 Este 7 Oeste 0 -- -- 73
2019-09-27 03:00:00 13.9 6 Oeste 8 Oeste 0 -- -- 74
2019-09-27 02:00:00 15.7 2 Norte 5 Oeste 0 -- -- 67
2019-09-27 01:00:00 16.3 5 Noroeste 6 Noroeste 0 -- -- 65
2019-09-27 00:00:00 17 0 Calma 4 Sudoeste 0 -- -- 62
2019-09-26 23:00:00 17.7 3 Oeste 7 Oeste 0 -- -- 61
2019-09-26 22:00:00 18.6 5 Sudoeste 9 Oeste 0 -- -- 57
2019-09-26 21:00:00 19.9 8 Sudoeste 12 Sudoeste 0 -- -- 53
2019-09-26 20:00:00 21.5 9 Sudoeste 13 Sudoeste 0 -- -- 50
2019-09-26 19:00:00 25.3 7 Sudoeste 14 Sudeste 0 -- -- 41
2019-09-26 18:00:00 25.2 10 Sudeste 17 Sudeste 0 -- -- 42
2019-09-26 17:00:00 25.7 7 Sur 18 Sur 0 -- -- 41
2019-09-26 16:00:00 24.2 2 Este 13 Noroeste 0 -- -- 45
2019-09-26 15:00:00 23.7 5 Norte 23 Noroeste 0 -- -- 45
2019-09-26 14:00:00 24.1 9 Norte 21 Nordeste 0 -- -- 44
2019-09-26 13:00:00 22.7 3 Nordeste 15 Este 0 -- -- 45
2019-09-26 12:00:00 21.5 4 Nordeste 10 Este 0 -- -- 47
2019-09-26 11:00:00 17.4 4 Noroeste 8 Norte 0 -- -- 65
2019-09-26 10:00:00 14.7 4 Norte 7 Norte 0 -- -- 73
2019-09-26 09:00:00 12.7 4 Este 8 Noroeste 0 -- -- 79
2019-09-26 08:00:00 10.9 3 Oeste 4 Este 0 -- -- 84
2019-09-26 07:00:00 12.1 0 Calma 9 Sudoeste 0 -- -- 78
2019-09-26 06:00:00 12.1 4 Sudoeste 5 Sudoeste 0 -- -- 79
2019-09-26 05:00:00 12.9 0 Calma 6 Noroeste 0 -- -- 73
2019-09-26 04:00:00 13.9 3 Norte 5 Sudoeste 0 -- -- 70
2019-09-26 03:00:00 15 4 Sudoeste 6 Sudeste 0 -- -- 66
2019-09-26 02:00:00 15.1 4 Sudeste 6 Sudeste 0 -- -- 68
2019-09-26 01:00:00 15.3 3 Norte 11 Norte 0 -- -- 63
2019-09-26 00:00:00 15.5 5 Noroeste 17 Noroeste 0 -- -- 62
2019-09-25 23:00:00 15.9 10 Noroeste 27 Noroeste 0 -- -- 60
2019-09-25 22:00:00 16.1 21 Noroeste 29 Noroeste 0 -- -- 61
2019-09-25 21:00:00 15.7 15 Noroeste 29 Noroeste 0 -- -- 63
2019-09-25 20:00:00 16.2 23 Noroeste 33 Noroeste 0 -- -- 61
2019-09-25 19:00:00 17.1 22 Norte 35 Norte 0 -- -- 59
2019-09-25 18:00:00 18.4 25 Norte 39 Noroeste 0 -- -- 55
2019-09-25 17:00:00 19.5 27 Noroeste 38 Norte 0 -- -- 51
2019-09-25 16:00:00 20.5 22 Noroeste 40 Noroeste 0 -- -- 48
2019-09-25 15:00:00 19.8 25 Noroeste 44 Noroeste 0 -- -- 50
2019-09-25 14:00:00 19.4 27 Noroeste 42 Noroeste 0 -- -- 51
2019-09-25 13:00:00 18.5 25 Noroeste 40 Noroeste 0 -- -- 52
2019-09-25 12:00:00 17.8 27 Noroeste 40 Noroeste 0 -- -- 56
2019-09-25 11:00:00 16.4 23 Noroeste 36 Noroeste 0 -- -- 63
2019-09-25 10:00:00 14.9 21 Noroeste 32 Noroeste 0 -- -- 70
2019-09-25 09:00:00 13.8 18 Noroeste 30 Noroeste 0 -- -- 75
2019-09-25 08:00:00 12.1 4 Noroeste 18 Noroeste 0 -- -- 80
2019-09-25 07:00:00 12.1 12 Noroeste 18 Noroeste 0 -- -- 80
2019-09-25 06:00:00 11.9 11 Oeste 15 Oeste 0 -- -- 85
2019-09-25 05:00:00 12.5 6 Oeste 9 Noroeste 0 -- -- 87
2019-09-25 04:00:00 12.9 7 Noroeste 11 Noroeste 0 -- -- 89
2019-09-25 03:00:00 14.4 4 Nordeste 9 Norte 0 -- -- 86
2019-09-25 02:00:00 14.7 3 Oeste 7 Oeste 0 -- -- 85
2019-09-25 01:00:00 16 3 Este 8 Este 0 -- -- 80
2019-09-25 00:00:00 16.6 3 Sudoeste 8 Oeste 0.4 -- -- 77
2019-09-24 23:00:00 16.7 3 Noroeste 7 Noroeste 0 -- -- 72
2019-09-24 22:00:00 17.9 6 Sudoeste 9 Sudoeste 0 -- -- 67
2019-09-24 21:00:00 18.7 5 Oeste 8 Oeste 0 -- -- 65
2019-09-24 20:00:00 21.3 4 Noroeste 28 Noroeste 0 -- -- 55
2019-09-24 19:00:00 23.6 13 Noroeste 27 Oeste 0 -- -- 49
2019-09-24 18:00:00 23.6 15 Noroeste 29 Noroeste 0 -- -- 46
2019-09-24 17:00:00 24.7 12 Noroeste 38 Noroeste 0 -- -- 44
2019-09-24 16:00:00 25.5 17 Noroeste 37 Oeste 0 -- -- 42
2019-09-24 15:00:00 25.4 14 Norte 23 Noroeste 0 -- -- 42
2019-09-24 14:00:00 24.2 6 Nordeste 17 Este 0 -- -- 40
2019-09-24 13:00:00 23.4 8 Nordeste 17 Nordeste 0 -- -- 41
2019-09-24 12:00:00 23.2 5 Sudeste 16 Sur 0 -- -- 39
2019-09-24 11:00:00 20.8 12 Sur 17 Sur 0 -- -- 45
2019-09-24 10:00:00 16.5 4 Nordeste 9 Nordeste 0 -- -- 58
2019-09-24 09:00:00 13.3 5 Este 9 Norte 0 -- -- 68
2019-09-24 08:00:00 11.3 3 Norte 12 Sur 0 -- -- 71
2019-09-24 07:00:00 12 3 Este 10 Nordeste 0 -- -- 68
2019-09-24 06:00:00 14.7 11 Sudoeste 20 Sur 0 -- -- 57
2019-09-24 05:00:00 15.1 8 Sur 20 Sur 0 -- -- 53
2019-09-24 04:00:00 13.7 4 Sudeste 17 Sur 0 -- -- 60
2019-09-24 03:00:00 14.5 6 Sudeste 17 Sudeste 0 -- -- 56
2019-09-24 02:00:00 14.7 6 Sur 10 Sur 0 -- -- 55
2019-09-24 01:00:00 14.9 4 Sudeste 7 Norte 0 -- -- 56
2019-09-24 00:00:00 14.3 2 Oeste 8 Sudeste 0 -- -- 63
2019-09-23 23:00:00 15 7 Sudoeste 9 Sudoeste 0 -- -- 57
2019-09-23 22:00:00 16.5 5 Sudoeste 10 Sur 0 -- -- 52
2019-09-23 21:00:00 16.4 4 Sudeste 10 Sudoeste 0 -- -- 51
2019-09-23 20:00:00 17.4 9 Sudoeste 10 Sudoeste 0 -- -- 51
2019-09-23 19:00:00 20.1 5 Noroeste 15 Nordeste 0 -- -- 45
2019-09-23 18:00:00 21.5 8 Norte 15 Norte 0 -- -- 39
2019-09-23 17:00:00 21.1 9 Nordeste 16 Norte 0 -- -- 42
2019-09-23 16:00:00 20.8 9 Nordeste 17 Nordeste 0 -- -- 46
2019-09-23 15:00:00 20.4 6 Norte 16 Nordeste 0 -- -- 49
2019-09-23 14:00:00 20.3 10 Este 17 Nordeste 0 -- -- 48
2019-09-23 13:00:00 18.5 3 Norte 9 Nordeste 0 -- -- 55
2019-09-23 12:00:00 16.8 4 Sudeste 9 Este 0 -- -- 64
2019-09-23 11:00:00 13.2 3 Noroeste 6 Noroeste 0 -- -- 79
2019-09-23 10:00:00 11 3 Nordeste 6 Nordeste 0 -- -- 86
2019-09-23 09:00:00 9.1 0 Calma 4 Sur 0 -- -- 92
2019-09-23 08:00:00 8.1 0 Calma 3 Nordeste 0 -- -- 93
2019-09-23 07:00:00 8.3 0 Calma 5 Noroeste 0 -- -- 93
2019-09-23 06:00:00 8.5 3 Oeste 4 Oeste 0 -- -- 90
2019-09-23 05:00:00 9.1 0 Calma 7 Noroeste 0 -- -- 88
2019-09-23 04:00:00 9.4 5 Noroeste 7 Noroeste 0 -- -- 88
2019-09-23 03:00:00 10.4 3 Norte 8 Sudoeste 0 -- -- 82
2019-09-23 02:00:00 11.4 5 Sudoeste 8 Sudoeste 0 -- -- 78
2019-09-23 01:00:00 12.1 3 Sudoeste 11 Sudoeste 0 -- -- 78
2019-09-23 00:00:00 13.2 2 Sur 6 Nordeste 0 -- -- 74
2019-09-22 23:00:00 13.5 6 Noroeste 12 Noroeste 0 -- -- 72
2019-09-22 22:00:00 14.3 5 Noroeste 17 Oeste 0 -- -- 67
2019-09-22 21:00:00 15.3 13 Oeste 21 Oeste 0 -- -- 59
2019-09-22 20:00:00 16.2 12 Oeste 24 Norte 0 -- -- 62
2019-09-22 19:00:00 19.9 15 Norte 25 Noroeste 0 -- -- 49
2019-09-22 18:00:00 20.2 13 Noroeste 32 Noroeste 0 -- -- 52
2019-09-22 17:00:00 20.3 17 Noroeste 27 Noroeste 0 -- -- 52
2019-09-22 16:00:00 19.6 20 Noroeste 30 Noroeste 0 -- -- 57
2019-09-22 15:00:00 18.8 6 Norte 14 Norte 0 -- -- 71
2019-09-22 14:00:00 17.9 6 Norte 11 Nordeste 0.2 -- -- 81
2019-09-22 13:00:00 17.1 8 Norte 21 Norte 0.4 -- -- 84
2019-09-22 12:00:00 18.5 14 Noroeste 26 Noroeste 0 -- -- 78
2019-09-22 11:00:00 18.4 13 Sudoeste 30 Sudoeste 0 -- -- 82
2019-09-22 10:00:00 17.2 18 Sur 26 Sur 1.4 -- -- 90
2019-09-22 09:00:00 17.4 17 Sudoeste 31 Sudoeste 0 -- -- 86
2019-09-22 08:00:00 16.9 17 Sudoeste 27 Sur 0.6 -- -- 90
2019-09-22 07:00:00 17.1 15 Sur 26 Sur 0 -- -- 88
2019-09-22 06:00:00 17.5 14 Sudeste 24 Sudeste 0 -- -- 83
2019-09-22 05:00:00 17.2 11 Sur 23 Sur 0 -- -- 84
2019-09-22 04:00:00 17.7 12 Sur 27 Sur 0 -- -- 81
2019-09-22 03:00:00 18 16 Sur 26 Sur 0 -- -- 79
2019-09-22 02:00:00 17.6 13 Sur 21 Sur 0 -- -- 82
2019-09-22 01:00:00 17.8 12 Sur 28 Sur 0 -- -- 82
2019-09-22 00:00:00 17.9 14 Sur 29 Sudeste 0 -- -- 81
2019-09-21 23:00:00 18.3 12 Sur 24 Sudoeste 0 -- -- 76
2019-09-21 22:00:00 19.4 10 Sur 19 Sur 0 -- -- 69
2019-09-21 21:00:00 20.4 9 Sur 17 Sudeste 0 -- -- 62
2019-09-21 20:00:00 20.8 9 Sur 22 Sudeste 0 -- -- 60
2019-09-21 19:00:00 21.8 13 Sudeste 24 Sudeste 0 -- -- 57
2019-09-21 18:00:00 22.2 14 Sudeste 24 Sudeste 0 -- -- 56
2019-09-21 17:00:00 22.1 14 Sur 29 Sur 0 -- -- 55
2019-09-21 16:00:00 23 19 Sur 31 Sudoeste 0 -- -- 51
2019-09-21 15:00:00 22.2 17 Sur 31 Sur 0 -- -- 61
2019-09-21 14:00:00 20.6 19 Sur 35 Sur 0 -- -- 65
2019-09-21 13:00:00 20.9 16 Sur 32 Sudeste 0 -- -- 68
2019-09-21 12:00:00 19.8 10 Sudeste 29 Sudeste 0 -- -- 74
2019-09-21 11:00:00 17.5 14 Sudeste 27 Sudeste 0 -- -- 82
2019-09-21 10:00:00 15.5 11 Sur 33 Sudeste 1.4 -- -- 87
2019-09-21 09:00:00 15.6 25 Sur 39 Sur 0 -- -- 85
2019-09-21 08:00:00 15.5 20 Sur 36 Sur 0.4 -- -- 86
2019-09-21 07:00:00 15.3 24 Sur 37 Sur 0.6 -- -- 88
2019-09-21 06:00:00 15.1 22 Sur 35 Sur 0.6 -- -- 90
2019-09-21 05:00:00 15.1 22 Sur 35 Sur 1.8 -- -- 88
2019-09-21 04:00:00 15.3 24 Sur 29 Sur 1 -- -- 88
2019-09-21 03:00:00 15.1 18 Sur 24 Sur 0.6 -- -- 89
2019-09-21 02:00:00 14.7 12 Sudeste 32 Sur 6.4 -- -- 91
2019-09-21 01:00:00 15.9 22 Sudoeste 37 Sudoeste 1.6 -- -- 82
2019-09-21 00:00:00 17.8 13 Sur 32 Sur 0.8 -- -- 78
2019-09-20 23:00:00 19.1 19 Sur 37 Sur 0 -- -- 72
2019-09-20 22:00:00 19.1 24 Sur 51 Sur 0.2 -- -- 73
2019-09-20 21:00:00 21 34 Sur 51 Sur 0 -- -- 65
2019-09-20 20:00:00 22.2 24 Sur 43 Sur 0 -- -- 54
2019-09-20 19:00:00 23.2 25 Sur 39 Sur 0 -- -- 50
2019-09-20 18:00:00 24.2 22 Sur 37 Sur 0 -- -- 48
2019-09-20 17:00:00 25.8 24 Sur 42 Sur 0 -- -- 43
2019-09-20 16:00:00 25.8 25 Sur 42 Sur 0 -- -- 43
2019-09-20 15:00:00 25.3 26 Sur 42 Sur 0 -- -- 43
2019-09-20 14:00:00 25 24 Sur 40 Sur 0 -- -- 46
2019-09-20 13:00:00 24 24 Sur 37 Sur 0 -- -- 49
2019-09-20 12:00:00 22.7 14 Sur 28 Sur 0 -- -- 54
2019-09-20 11:00:00 21.2 18 Sur 30 Sudeste 0 -- -- 56
2019-09-20 10:00:00 21.1 12 Sur 23 Sur 0 -- -- 57
2019-09-20 09:00:00 17.7 10 Sur 18 Sur 0 -- -- 72
2019-09-20 08:00:00 16.3 5 Este 16 Este 0 -- -- 79
2019-09-20 07:00:00 16.7 13 Sur 27 Sur 0 -- -- 76
2019-09-20 06:00:00 16.7 10 Sur 24 Sudeste 0 -- -- 76
2019-09-20 05:00:00 17.4 15 Sur 24 Sur 0 -- -- 73
2019-09-20 04:00:00 17.7 14 Sudoeste 21 Sur 0 -- -- 71
2019-09-20 03:00:00 18.1 16 Sur 21 Sur 0 -- -- 70
2019-09-20 02:00:00 18 14 Sur 27 Sur 0 -- -- 73
2019-09-20 01:00:00 19.1 15 Sur 23 Sudoeste 0 -- -- 63
2019-09-20 00:00:00 19 10 Sudeste 17 Sudeste 0 -- -- 61
2019-09-19 23:00:00 18.4 3 Sudeste 12 Sur 0 -- -- 65
2019-09-19 22:00:00 18.5 5 Sudoeste 13 Sudeste 0 -- -- 63
2019-09-19 21:00:00 20.5 6 Sur 11 Sudoeste 0 -- -- 56
2019-09-19 20:00:00 21.2 0 Calma 8 Sudoeste 0 -- -- 56
2019-09-19 19:00:00 22.4 6 Oeste 9 Oeste 0 -- -- 53
2019-09-19 18:00:00 22.8 7 Oeste 9 Oeste 0 -- -- 53
2019-09-19 17:00:00 22.6 4 Oeste 12 Norte 0 -- -- 61
2019-09-19 16:00:00 22.4 4 Noroeste 30 Oeste 0 -- -- 58
2019-09-19 15:00:00 20.3 23 Oeste 31 Oeste 0 -- -- 68
2019-09-19 14:00:00 22.8 17 Noroeste 26 Sudeste 0 -- -- 56
2019-09-19 13:00:00 25.4 12 Sudoeste 22 Sur 0 -- -- 44
2019-09-19 12:00:00 24.2 12 Sur 22 Sur 0 -- -- 46
2019-09-19 11:00:00 19.5 2 Este 8 Este 0 -- -- 70
2019-09-19 10:00:00 15.6 2 Sur 6 Norte 0 -- -- 87
2019-09-19 09:00:00 13.4 0 Calma 4 Este 0 -- -- 93
2019-09-19 08:00:00 12.7 2 Oeste 4 Sudoeste 0 -- -- 93
2019-09-19 07:00:00 12.6 0 Calma 4 Noroeste 0 -- -- 92
2019-09-19 06:00:00 12.6 4 Noroeste 5 Noroeste 0 -- -- 90
2019-09-19 05:00:00 13.5 0 Calma 4 Este 0 -- -- 90
2019-09-19 04:00:00 14 0 Calma 4 Norte 0 -- -- 88
2019-09-19 03:00:00 14.5 0 Calma 7 Norte 0 -- -- 86
2019-09-19 02:00:00 15.4 0 Calma 6 Sudoeste 0 -- -- 81
2019-09-19 01:00:00 15.9 2 Sudoeste 7 Noroeste 0 -- -- 80
2019-09-19 00:00:00 16.1 5 Sudoeste 6 Sudoeste 0 -- -- 79
2019-09-18 23:00:00 16.9 4 Noroeste 9 Sudoeste 0 -- -- 74
2019-09-18 22:00:00 18.6 6 Sudoeste 8 Sudoeste 0 -- -- 68
2019-09-18 21:00:00 19.5 0 Calma 14 Noroeste 0 -- -- 68
2019-09-18 20:00:00 21.3 12 Oeste 28 Noroeste 0.2 -- -- 57
2019-09-18 19:00:00 22.7 10 Oeste 14 Oeste 0 -- -- 53
2019-09-18 18:00:00 23.7 7 Este 17 Sudeste 0 -- -- 49
2019-09-18 17:00:00 23.2 6 Este 18 Noroeste 0 -- -- 53
2019-09-18 16:00:00 23.4 12 Noroeste 30 Noroeste 0.2 -- -- 56
2019-09-18 15:00:00 24.8 9 Norte 24 Sudoeste 0 -- -- 51
2019-09-18 14:00:00 26.4 7 Nordeste 19 Noroeste 0 -- -- 43
2019-09-18 13:00:00 24.9 6 Nordeste 15 Noroeste 0 -- -- 45
2019-09-18 12:00:00 23 4 Norte 17 Noroeste 0 -- -- 50
2019-09-18 11:00:00 20.9 6 Noroeste 13 Noroeste 0 -- -- 61
2019-09-18 10:00:00 19.5 3 Nordeste 7 Nordeste 0 -- -- 68
2019-09-18 09:00:00 17.4 0 Calma 10 Noroeste 0 -- -- 79
2019-09-18 08:00:00 15.6 6 Oeste 12 Oeste 0 -- -- 87
2019-09-18 07:00:00 16.7 7 Oeste 10 Sudoeste 0 -- -- 82
2019-09-18 06:00:00 16.5 4 Oeste 5 Oeste 0 -- -- 82
2019-09-18 05:00:00 17.2 3 Noroeste 8 Oeste 0 -- -- 77
2019-09-18 04:00:00 18.3 0 Calma 9 Sudoeste 0 -- -- 71
2019-09-18 03:00:00 18.8 4 Noroeste 18 Oeste 0 -- -- 68
2019-09-18 02:00:00 18.8 6 Este 9 Sudeste 0 -- -- 69
2019-09-18 01:00:00 19.6 3 Sudeste 8 Sudoeste 0 -- -- 66
2019-09-18 00:00:00 19.8 3 Este 10 Sudoeste 0 -- -- 65
2019-09-17 23:00:00 21.8 5 Sur 9 Sudoeste 0 -- -- 59
2019-09-17 22:00:00 22.3 4 Sur 12 Sudoeste 0 -- -- 56
2019-09-17 21:00:00 22.3 5 Sudeste 15 Este 0 -- -- 55